createdAt,value
2017-11-24T00:01:44.104Z,20.20
2017-11-24T00:04:11.887Z,20.70
2017-11-24T00:06:39.744Z,20.77
2017-11-24T00:09:07.544Z,21.50
2017-11-24T00:11:35.377Z,24.03
2017-11-24T00:14:03.377Z,23.20
2017-11-24T00:16:31.223Z,20.43
2017-11-24T00:18:59.317Z,17.00
2017-11-24T00:21:27.178Z,15.90
2017-11-24T00:23:55.088Z,14.93
2017-11-24T00:26:22.977Z,14.23
2017-11-24T00:28:50.937Z,15.43
2017-11-24T00:31:18.778Z,15.73
2017-11-24T00:33:46.657Z,15.07
2017-11-24T00:36:15.343Z,13.20
2017-11-24T00:38:43.597Z,12.60
2017-11-24T00:41:11.554Z,13.13
2017-11-24T00:43:39.472Z,12.57
2017-11-24T00:46:07.263Z,12.97
2017-11-24T00:48:35.148Z,11.70
2017-11-24T00:51:02.927Z,12.43
2017-11-24T00:53:30.719Z,14.83
2017-11-24T00:55:59.344Z,15.97
2017-11-24T00:58:27.143Z,18.20
2017-11-24T01:00:54.939Z,20.33
2017-11-24T01:03:22.768Z,21.63
2017-11-24T01:05:50.557Z,21.97
2017-11-24T01:08:18.395Z,23.13
2017-11-24T01:10:46.210Z,25.60
2017-11-24T01:13:15.769Z,25.13
2017-11-24T01:15:43.529Z,26.27
2017-11-24T01:18:11.297Z,25.57
2017-11-24T01:20:39.040Z,24.93
2017-11-24T01:23:06.913Z,24.33
2017-11-24T01:25:34.737Z,26.43
2017-11-24T01:28:03.316Z,26.60
2017-11-24T01:30:31.899Z,25.10
2017-11-24T01:33:00.697Z,28.42
2017-11-24T01:35:28.537Z,27.83
2017-11-24T01:37:56.288Z,29.50
2017-11-24T01:40:24.096Z,29.60
2017-11-24T01:42:52.008Z,29.17
2017-11-24T01:45:20.031Z,28.93
2017-11-24T01:47:47.941Z,29.47
2017-11-24T01:50:15.965Z,27.00
2017-11-24T01:52:43.763Z,28.30
2017-11-24T01:55:11.604Z,27.10
2017-11-24T01:57:39.366Z,24.87
2017-11-24T02:00:07.214Z,24.90
2017-11-24T02:02:35.097Z,23.97
2017-11-24T02:05:02.872Z,22.77
2017-11-24T02:07:31.418Z,22.27
2017-11-24T02:09:59.368Z,21.93
2017-11-24T02:12:27.138Z,21.87
2017-11-24T02:14:54.933Z,21.30
2017-11-24T02:17:22.729Z,20.20
2017-11-24T02:19:50.565Z,21.47
2017-11-24T02:22:18.407Z,22.90
2017-11-24T02:24:46.364Z,20.83
2017-11-24T02:27:14.415Z,21.03
2017-11-24T02:29:42.319Z,20.27
2017-11-24T02:32:10.245Z,20.50
2017-11-24T02:34:38.094Z,21.00
2017-11-24T02:37:06.740Z,21.20
2017-11-24T02:39:34.645Z,20.07
2017-11-24T02:42:02.562Z,20.50
2017-11-24T02:44:31.218Z,18.17
2017-11-24T02:46:59.163Z,15.30
2017-11-24T02:49:26.990Z,14.73
2017-11-24T02:51:54.859Z,13.93
2017-11-24T02:54:22.911Z,12.80
2017-11-24T02:56:50.881Z,11.37
2017-11-24T02:59:18.797Z,12.90
2017-11-24T03:01:46.706Z,11.67
2017-11-24T03:04:14.559Z,12.00
2017-11-24T03:06:42.339Z,11.10
2017-11-24T03:09:10.230Z,13.70
2017-11-24T03:11:38.862Z,13.73
2017-11-24T03:14:06.646Z,11.53
2017-11-24T03:16:34.516Z,10.83
2017-11-24T03:19:02.403Z,12.60
2017-11-24T03:21:30.266Z,9.60
2017-11-24T03:23:58.082Z,9.37
2017-11-24T03:26:25.960Z,11.57
2017-11-24T03:28:53.918Z,12.57
2017-11-24T03:31:21.816Z,14.20
2017-11-24T03:33:49.655Z,15.50
2017-11-24T03:36:17.628Z,14.67
2017-11-24T03:38:45.481Z,18.10
2017-11-24T03:41:13.405Z,18.90
2017-11-24T03:43:41.317Z,18.70
2017-11-24T03:46:45.211Z,16.17
2017-11-24T03:49:14.327Z,13.90
2017-11-24T03:51:43.657Z,11.13
2017-11-24T03:57:41.085Z,14.23
2017-11-24T04:00:33.560Z,14.80
2017-11-24T04:03:01.411Z,16.30
2017-11-24T04:06:11.672Z,15.23
2017-11-24T04:08:39.682Z,14.90
2017-11-24T04:11:25.773Z,15.53
2017-11-24T04:14:20.164Z,12.60
2017-11-24T04:16:48.127Z,11.33
2017-11-24T04:19:59.267Z,8.23
2017-11-24T04:25:59.996Z,7.07
2017-11-24T04:32:11.420Z,6.57
2017-11-24T04:34:44.280Z,8.23
2017-11-24T04:37:47.308Z,9.70
2017-11-24T04:40:15.203Z,9.20
2017-11-24T04:42:44.158Z,9.20
2017-11-24T04:45:13.417Z,11.37
2017-11-24T04:48:21.650Z,10.70
2017-11-24T04:50:49.532Z,11.00
2017-11-24T04:53:19.772Z,11.90
2017-11-24T04:55:48.505Z,13.30
2017-11-24T04:58:38.865Z,14.23
2017-11-24T05:01:06.696Z,12.85
2017-11-24T05:03:35.769Z,15.17
2017-11-24T05:06:03.741Z,15.90
2017-11-24T05:08:31.729Z,17.40
2017-11-24T05:14:32.450Z,14.27
2017-11-24T05:17:08.566Z,11.57
2017-11-24T05:19:37.839Z,11.67
2017-11-24T05:22:18.705Z,11.87
2017-11-24T05:24:46.572Z,11.47
2017-11-24T05:27:18.620Z,9.73
2017-11-24T05:29:46.749Z,10.20
2017-11-24T05:32:14.613Z,10.27
2017-11-24T05:34:42.510Z,10.27
2017-11-24T05:37:10.369Z,9.90
2017-11-24T05:39:59.630Z,9.10
2017-11-24T05:42:27.564Z,8.37
2017-11-24T05:44:57.543Z,7.70
2017-11-24T05:47:25.563Z,8.10
2017-11-24T05:49:53.402Z,8.17
2017-11-24T05:52:21.743Z,10.40
2017-11-24T05:54:50.568Z,12.00
2017-11-24T05:57:18.621Z,19.27
2017-11-24T05:59:48.528Z,20.13
2017-11-24T06:02:37.719Z,19.03
2017-11-24T06:05:06.430Z,19.80
2017-11-24T06:07:34.770Z,20.87
2017-11-24T06:10:04.190Z,21.87
2017-11-24T06:12:33.450Z,21.03
2017-11-24T06:18:32.059Z,22.20
2017-11-24T06:21:01.403Z,20.17
2017-11-24T06:23:30.683Z,18.30
2017-11-24T06:26:06.498Z,18.40
2017-11-24T06:28:34.313Z,20.10
2017-11-24T06:31:17.862Z,16.60
2017-11-24T06:33:45.716Z,14.90
2017-11-24T06:36:15.649Z,14.60
2017-11-24T06:38:43.565Z,11.97
2017-11-24T06:41:12.163Z,12.20
2017-11-24T06:43:40.708Z,9.73
2017-11-24T06:46:08.545Z,8.83
2017-11-24T06:48:36.377Z,7.90
2017-11-24T06:53:54.609Z,7.30
2017-11-24T06:56:23.324Z,6.00
2017-11-24T06:58:51.174Z,6.57
2017-11-24T07:01:19.179Z,6.90
2017-11-24T07:03:47.065Z,5.97
2017-11-24T07:06:15.577Z,6.83
2017-11-24T07:08:43.470Z,6.05
2017-11-24T07:11:11.512Z,5.50
2017-11-24T07:13:39.435Z,5.23
2017-11-24T07:16:07.403Z,5.40
2017-11-24T07:18:35.287Z,6.10
2017-11-24T07:21:03.136Z,6.20
2017-11-24T07:23:30.950Z,6.97
2017-11-24T07:25:58.785Z,6.43
2017-11-24T07:28:26.588Z,7.10
2017-11-24T07:30:55.175Z,7.83
2017-11-24T07:33:23.782Z,6.03
2017-11-24T07:35:51.664Z,4.97
2017-11-24T07:38:19.444Z,6.30
2017-11-24T07:40:47.294Z,6.90
2017-11-24T07:43:15.131Z,5.50
2017-11-24T07:45:42.973Z,8.33
2017-11-24T07:48:10.790Z,8.20
2017-11-24T07:50:38.659Z,7.40
2017-11-24T07:53:06.459Z,9.97
2017-11-24T07:55:34.567Z,9.83
2017-11-24T07:58:05.501Z,8.50
2017-11-24T08:00:34.173Z,8.40
2017-11-24T08:03:02.159Z,8.57
2017-11-24T08:05:29.989Z,10.40
2017-11-24T08:07:57.879Z,10.80
2017-11-24T08:10:25.729Z,11.93
2017-11-24T08:12:53.623Z,8.97
2017-11-24T08:15:21.469Z,12.80
2017-11-24T08:17:49.309Z,13.37
2017-11-24T08:20:17.260Z,14.37
2017-11-24T08:22:45.137Z,17.77
2017-11-24T08:25:12.932Z,20.50
2017-11-24T08:27:40.752Z,19.40
2017-11-24T08:30:09.463Z,20.07
2017-11-24T08:32:37.470Z,21.43
2017-11-24T08:35:06.167Z,21.60
2017-11-24T08:37:34.076Z,20.90
2017-11-24T08:40:01.906Z,21.40
2017-11-24T08:42:29.772Z,19.77
2017-11-24T08:44:57.725Z,18.50
2017-11-24T08:47:31.077Z,20.10
2017-11-24T08:49:58.908Z,19.23
2017-11-24T08:52:26.723Z,19.87
2017-11-24T08:54:54.562Z,17.53
2017-11-24T08:57:22.468Z,20.07
2017-11-24T08:59:51.069Z,18.70
2017-11-24T09:02:19.742Z,16.00
2017-11-24T09:04:47.536Z,15.43
2017-11-24T09:07:15.321Z,15.17
2017-11-24T09:09:43.196Z,13.73
2017-11-24T09:12:11.075Z,15.13
2017-11-24T09:14:38.891Z,15.10
2017-11-24T09:17:06.756Z,14.87
2017-11-24T09:19:34.608Z,14.93
2017-11-24T09:22:03.255Z,16.70
2017-11-24T09:24:31.425Z,15.90
2017-11-24T09:26:59.601Z,15.53
2017-11-24T09:29:27.443Z,11.83
2017-11-24T09:31:55.336Z,7.27
2017-11-24T09:34:23.620Z,8.20
2017-11-24T09:36:51.485Z,7.93
2017-11-24T09:39:19.296Z,8.63
2017-11-24T09:41:47.225Z,10.47
2017-11-24T09:44:15.108Z,10.10
2017-11-24T09:46:45.042Z,10.17
2017-11-24T09:49:14.031Z,9.83
2017-11-24T09:51:41.956Z,14.50
2017-11-24T09:54:09.782Z,13.50
2017-11-24T09:56:37.620Z,16.20
2017-11-24T09:59:06.308Z,16.50
2017-11-24T10:01:34.145Z,19.70
2017-11-24T10:04:01.938Z,19.43
2017-11-24T10:06:29.825Z,20.70
2017-11-24T10:08:57.830Z,21.83
2017-11-24T10:11:26.633Z,21.43
2017-11-24T10:13:54.477Z,26.73
2017-11-24T10:16:22.310Z,24.30
2017-11-24T10:18:50.116Z,23.30
2017-11-24T10:21:23.548Z,23.90
2017-11-24T10:23:52.119Z,21.23
2017-11-24T10:26:21.214Z,22.77
2017-11-24T10:28:49.878Z,22.10
2017-11-24T10:31:18.123Z,21.70
2017-11-24T10:33:45.915Z,21.47
2017-11-24T10:36:13.812Z,22.53
2017-11-24T10:38:42.411Z,20.03
2017-11-24T10:41:10.343Z,19.60
2017-11-24T10:43:38.181Z,18.10
2017-11-24T10:46:06.069Z,17.67
2017-11-24T10:48:33.944Z,14.97
2017-11-24T10:51:01.751Z,16.43
2017-11-24T10:53:29.565Z,17.20
2017-11-24T10:55:57.391Z,17.20
2017-11-24T10:58:25.212Z,18.10
2017-11-24T11:00:53.420Z,16.80
2017-11-24T11:03:21.233Z,17.27
2017-11-24T11:05:50.050Z,17.73
2017-11-24T11:08:18.627Z,14.77
2017-11-24T11:10:47.913Z,15.40
2017-11-24T11:13:15.819Z,15.07
2017-11-24T11:15:45.753Z,14.87
2017-11-24T11:18:14.058Z,16.07
2017-11-24T11:20:41.916Z,15.10
2017-11-24T11:23:09.928Z,14.00
2017-11-24T11:25:37.873Z,15.80
2017-11-24T11:28:05.708Z,17.00
2017-11-24T11:30:33.719Z,15.30
2017-11-24T11:33:02.225Z,16.43
2017-11-24T11:35:30.585Z,15.20
2017-11-24T11:37:59.282Z,16.13
2017-11-24T11:40:27.944Z,16.27
2017-11-24T11:42:56.573Z,15.73
2017-11-24T11:45:24.452Z,19.20
2017-11-24T11:47:52.459Z,16.10
2017-11-24T11:50:20.715Z,16.83
2017-11-24T11:52:48.629Z,15.53
2017-11-24T11:55:17.585Z,17.13
2017-11-24T11:57:45.536Z,15.00
2017-11-24T12:00:14.028Z,17.47
2017-11-24T12:02:41.922Z,17.77
2017-11-24T12:05:09.910Z,16.40
2017-11-24T12:07:38.494Z,18.10
2017-11-24T12:10:06.524Z,18.50
2017-11-24T12:12:34.364Z,20.00
2017-11-24T12:15:03.050Z,19.80
2017-11-24T12:17:30.943Z,21.80
2017-11-24T12:19:58.943Z,23.10
2017-11-24T12:22:26.798Z,21.00
2017-11-24T12:24:54.672Z,17.30
2017-11-24T12:27:22.527Z,15.97
2017-11-24T12:29:50.864Z,16.90
2017-11-24T12:32:18.773Z,16.27
2017-11-24T12:34:47.429Z,17.40
2017-11-24T12:37:15.265Z,16.27
2017-11-24T12:39:43.277Z,16.53
2017-11-24T12:42:11.065Z,18.77
2017-11-24T12:44:39.685Z,18.52
2017-11-24T12:47:07.534Z,20.63
2017-11-24T12:49:35.328Z,17.80
2017-11-24T12:52:03.158Z,20.87
2017-11-24T12:54:31.822Z,18.27
2017-11-24T12:56:59.964Z,17.17
2017-11-24T12:59:28.689Z,19.10
2017-11-24T13:01:57.348Z,19.20
2017-11-24T13:04:25.400Z,15.80
2017-11-24T13:06:53.240Z,16.43
2017-11-24T13:09:21.157Z,17.40
2017-11-24T13:11:48.979Z,17.47
2017-11-24T13:14:16.812Z,16.83
2017-11-24T13:16:45.454Z,16.77
2017-11-24T13:19:13.438Z,17.10
2017-11-24T13:21:41.421Z,15.50
2017-11-24T13:24:09.309Z,14.77
2017-11-24T13:26:37.971Z,16.37
2017-11-24T13:29:06.557Z,17.10
2017-11-24T13:31:35.250Z,16.47
2017-11-24T13:34:03.899Z,17.90
2017-11-24T13:36:31.734Z,17.23
2017-11-24T13:38:59.545Z,16.60
2017-11-24T13:41:27.499Z,16.60
2017-11-24T13:43:55.323Z,16.43
2017-11-24T13:46:23.157Z,18.57
2017-11-24T13:48:50.971Z,18.97
2017-11-24T13:51:18.883Z,18.73
2017-11-24T13:53:46.780Z,20.03
2017-11-24T13:56:14.713Z,19.43
2017-11-24T13:58:42.559Z,19.83
2017-11-24T14:01:10.574Z,18.80
2017-11-24T14:03:39.242Z,20.63
2017-11-24T14:06:09.344Z,19.90
2017-11-24T14:08:37.224Z,21.80
2017-11-24T14:11:05.056Z,20.87
2017-11-24T14:13:32.885Z,20.10
2017-11-24T14:16:01.629Z,20.80
2017-11-24T14:18:29.459Z,21.20
2017-11-24T14:20:57.654Z,21.33
2017-11-24T14:23:26.540Z,17.90
2017-11-24T14:25:54.905Z,16.70
2017-11-24T14:28:22.734Z,19.30
2017-11-24T14:30:51.307Z,18.57
2017-11-24T14:33:19.106Z,18.60
2017-11-24T14:35:47.171Z,21.87
2017-11-24T14:38:15.048Z,16.97
2017-11-24T14:40:42.903Z,19.60
2017-11-24T14:43:10.892Z,21.47
2017-11-24T14:45:38.828Z,17.77
2017-11-24T14:48:06.820Z,19.47
2017-11-24T14:50:34.655Z,18.33
2017-11-24T14:53:03.372Z,19.37
2017-11-24T14:55:31.249Z,19.53
2017-11-24T14:57:59.050Z,15.60
2017-11-24T15:00:26.891Z,18.97
2017-11-24T15:02:54.732Z,16.87
2017-11-24T15:05:23.337Z,15.47
2017-11-24T15:07:51.573Z,15.70
2017-11-24T15:10:19.531Z,15.50
2017-11-24T15:12:48.178Z,13.87
2017-11-24T15:15:15.982Z,13.90
2017-11-24T15:17:44.596Z,14.60
2017-11-24T15:20:12.601Z,13.50
2017-11-24T15:22:40.461Z,13.68
2017-11-24T15:25:08.421Z,13.50
2017-11-24T15:27:36.332Z,9.80
2017-11-24T15:30:05.059Z,10.03
2017-11-24T15:32:32.934Z,9.90
2017-11-24T15:35:00.812Z,10.73
2017-11-24T15:37:28.683Z,11.87
2017-11-24T15:39:56.546Z,10.77
2017-11-24T15:42:24.533Z,10.30
2017-11-24T15:44:52.403Z,9.43
2017-11-24T15:47:20.215Z,11.50
2017-11-24T15:49:48.037Z,10.63
2017-11-24T15:52:16.003Z,9.17
2017-11-24T15:54:44.008Z,9.53
2017-11-24T15:57:11.838Z,10.57
2017-11-24T15:59:39.654Z,11.27
2017-11-24T16:02:07.703Z,12.10
2017-11-24T16:04:36.290Z,10.43
2017-11-24T16:07:04.131Z,11.27
2017-11-24T16:09:31.986Z,12.80
2017-11-24T16:11:59.789Z,12.77
2017-11-24T16:14:27.623Z,9.30
2017-11-24T16:16:55.462Z,10.10
2017-11-24T16:19:23.297Z,11.80
2017-11-24T16:21:51.212Z,12.33
2017-11-24T16:24:19.801Z,9.80
2017-11-24T16:26:48.409Z,9.63
2017-11-24T16:29:17.480Z,7.67
2017-11-24T16:31:45.277Z,9.47
2017-11-24T16:34:13.888Z,9.00
2017-11-24T16:36:41.705Z,9.00
2017-11-24T16:39:10.780Z,10.00
2017-11-24T16:41:38.614Z,9.40
2017-11-24T16:44:06.498Z,8.40
2017-11-24T16:46:34.346Z,8.00
2017-11-24T16:49:02.212Z,9.53
2017-11-24T16:51:30.144Z,10.70
2017-11-24T16:53:58.019Z,11.17
2017-11-24T16:56:26.056Z,12.07
2017-11-24T16:58:53.917Z,10.40
2017-11-24T17:01:21.826Z,8.53
2017-11-24T17:03:50.056Z,9.10
2017-11-24T17:06:17.867Z,9.30
2017-11-24T17:08:46.084Z,8.70
2017-11-24T17:11:13.958Z,10.67
2017-11-24T17:13:41.805Z,11.57
2017-11-24T17:16:09.672Z,11.40
2017-11-24T17:18:37.565Z,11.63
2017-11-24T17:21:05.440Z,12.00
2017-11-24T17:23:33.353Z,10.97
2017-11-24T17:26:01.269Z,11.70
2017-11-24T17:28:29.089Z,12.00
2017-11-24T17:30:57.391Z,11.40
2017-11-24T17:33:25.301Z,10.50
2017-11-24T17:35:53.896Z,11.97
2017-11-24T17:38:22.539Z,10.83
2017-11-24T17:40:50.404Z,9.47
2017-11-24T17:43:18.317Z,10.70
2017-11-24T17:45:46.212Z,9.53
2017-11-24T17:48:14.133Z,9.40
2017-11-24T17:50:42.746Z,9.37
2017-11-24T17:53:10.616Z,10.03
2017-11-24T17:55:38.459Z,8.23
2017-11-24T17:58:06.256Z,8.60
2017-11-24T18:00:34.198Z,9.27
2017-11-24T18:03:02.053Z,9.00
2017-11-24T18:05:30.618Z,8.43
2017-11-24T18:07:58.504Z,8.13
2017-11-24T18:10:27.174Z,8.53
2017-11-24T18:12:55.144Z,9.00
2017-11-24T18:15:23.796Z,9.10
2017-11-24T18:17:51.674Z,7.70
2017-11-24T18:20:19.493Z,7.93
2017-11-24T18:22:47.452Z,8.50
2017-11-24T18:25:15.480Z,7.60
2017-11-24T18:27:43.940Z,7.50
2017-11-24T18:30:11.871Z,9.07
2017-11-24T18:32:39.691Z,8.10
2017-11-24T18:35:07.490Z,8.70
2017-11-24T18:37:36.335Z,10.03
2017-11-24T18:40:04.241Z,9.80
2017-11-24T18:42:32.998Z,7.80
2017-11-24T18:45:00.818Z,8.30
2017-11-24T18:47:29.551Z,8.47
2017-11-24T18:49:57.395Z,9.53
2017-11-24T18:52:25.280Z,8.50
2017-11-24T18:54:53.135Z,9.90
2017-11-24T18:57:20.974Z,8.80
2017-11-24T18:59:48.802Z,9.50
2017-11-24T19:02:17.667Z,9.13
2017-11-24T19:04:45.494Z,9.00
2017-11-24T19:07:13.346Z,9.40
2017-11-24T19:09:41.165Z,8.67
2017-11-24T19:12:08.997Z,7.90
2017-11-24T19:14:36.836Z,12.13
2017-11-24T19:17:04.709Z,11.80
2017-11-24T19:19:32.606Z,9.60
2017-11-24T19:22:00.724Z,9.23
2017-11-24T19:24:29.393Z,9.40
2017-11-24T19:26:57.665Z,10.63
2017-11-24T19:29:25.576Z,13.20
2017-11-24T19:31:53.402Z,45.60
2017-11-24T19:34:21.217Z,92.77
2017-11-24T19:36:49.104Z,97.03
2017-11-24T19:39:16.954Z,43.23
2017-11-24T19:41:44.851Z,30.13
2017-11-24T19:44:12.743Z,21.30
2017-11-24T19:46:40.631Z,29.30
2017-11-24T19:49:09.269Z,27.80
2017-11-24T19:51:37.203Z,21.00
2017-11-24T19:54:05.079Z,16.70
2017-11-24T19:56:33.012Z,15.70
2017-11-24T19:59:01.650Z,14.90
2017-11-24T20:01:29.590Z,16.27
2017-11-24T20:03:57.469Z,17.80
2017-11-24T20:06:25.287Z,17.17
2017-11-24T20:08:54.014Z,19.37
2017-11-24T20:11:22.030Z,17.20
2017-11-24T20:13:49.964Z,19.50
2017-11-24T20:16:17.832Z,18.20
2017-11-24T20:18:45.767Z,17.80
2017-11-24T20:21:13.680Z,17.47
2017-11-24T20:23:41.577Z,16.90
2017-11-24T20:26:10.297Z,16.00
2017-11-24T20:28:40.342Z,17.50
2017-11-24T20:31:08.213Z,15.87
2017-11-24T20:33:36.264Z,16.67
2017-11-24T20:36:04.175Z,13.43
2017-11-24T20:38:33.430Z,12.90
2017-11-24T20:41:05.176Z,19.93
2017-11-24T20:43:33.842Z,17.10
2017-11-24T20:46:01.832Z,13.67
2017-11-24T20:48:29.718Z,10.70
2017-11-24T20:50:57.680Z,12.00
2017-11-24T20:53:25.526Z,11.73
2017-11-24T20:55:53.430Z,9.50
2017-11-24T20:58:22.338Z,12.30
2017-11-24T21:00:50.204Z,10.53
2017-11-24T21:03:18.036Z,10.97
2017-11-24T21:05:45.900Z,10.70
2017-11-24T21:08:13.721Z,10.70
2017-11-24T21:10:42.386Z,11.90
2017-11-24T21:13:10.318Z,13.17
2017-11-24T21:15:38.456Z,11.20
2017-11-24T21:18:07.134Z,12.10
2017-11-24T21:20:35.792Z,11.53
2017-11-24T21:23:03.731Z,12.10
2017-11-24T21:25:31.609Z,12.10
2017-11-24T21:27:59.443Z,14.07
2017-11-24T21:30:27.380Z,13.47
2017-11-24T21:32:56.016Z,13.30
2017-11-24T21:35:23.852Z,12.50
2017-11-24T21:37:51.702Z,14.23
2017-11-24T21:40:20.866Z,13.07
2017-11-24T21:42:48.744Z,13.00
2017-11-24T21:45:16.743Z,12.17
2017-11-24T21:47:44.634Z,11.83
2017-11-24T21:50:13.447Z,11.10
2017-11-24T21:52:41.430Z,10.20
2017-11-24T21:55:09.332Z,10.80
2017-11-24T21:57:37.896Z,10.32
2017-11-24T22:00:05.965Z,11.60
2017-11-24T22:02:33.880Z,12.10
2017-11-24T22:05:02.466Z,12.17
2017-11-24T22:07:30.306Z,12.90
2017-11-24T22:09:58.168Z,12.00
2017-11-24T22:12:26.842Z,12.60
2017-11-24T22:14:54.721Z,11.00
2017-11-24T22:17:23.307Z,10.63
2017-11-24T22:19:51.182Z,8.73
2017-11-24T22:22:19.066Z,7.70
2017-11-24T22:24:46.928Z,8.37
2017-11-24T22:27:14.803Z,9.57
2017-11-24T22:29:42.678Z,7.93
2017-11-24T22:32:10.720Z,8.97
2017-11-24T22:34:38.611Z,10.60
2017-11-24T22:37:06.643Z,10.43
2017-11-24T22:39:34.572Z,10.90
2017-11-24T22:42:02.419Z,11.00
2017-11-24T22:44:30.260Z,11.77
2017-11-24T22:46:58.139Z,11.77
2017-11-24T22:49:26.027Z,11.70
2017-11-24T22:51:53.842Z,10.27
2017-11-24T22:54:22.518Z,12.50
2017-11-24T22:56:51.169Z,11.57
2017-11-24T22:59:19.069Z,11.83
2017-11-24T23:01:46.943Z,10.77
2017-11-24T23:04:14.986Z,7.83
2017-11-24T23:06:42.854Z,9.83
2017-11-24T23:09:10.740Z,9.57
2017-11-24T23:11:39.407Z,9.67
2017-11-24T23:14:07.297Z,11.67
2017-11-24T23:16:35.226Z,9.97
2017-11-24T23:19:03.082Z,9.17
2017-11-24T23:21:31.053Z,9.83
2017-11-24T23:23:59.607Z,9.87
2017-11-24T23:26:27.806Z,10.40
2017-11-24T23:28:55.657Z,10.90
2017-11-24T23:31:23.569Z,9.17
2017-11-24T23:33:51.491Z,9.80
2017-11-24T23:36:19.347Z,10.90
2017-11-24T23:38:47.248Z,10.60
2017-11-24T23:41:15.184Z,10.30
2017-11-24T23:43:43.189Z,9.48
2017-11-24T23:46:11.051Z,8.13
2017-11-24T23:48:38.892Z,8.30
2017-11-24T23:51:06.811Z,7.87
2017-11-24T23:53:34.770Z,7.20
2017-11-24T23:56:02.617Z,7.27
2017-11-24T23:58:30.449Z,7.83
